sensor_id;sensor_type;location;lat;lon;timestamp;temperature;humidity
85808;DHT22;76250;48.718;9.000;2024-03-08T00:00:15;6.40;68.70
85808;DHT22;76250;48.718;9.000;2024-03-08T00:02:48;6.40;68.50
85808;DHT22;76250;48.718;9.000;2024-03-08T00:05:18;6.30;68.60
85808;DHT22;76250;48.718;9.000;2024-03-08T00:07:46;6.30;68.90
85808;DHT22;76250;48.718;9.000;2024-03-08T00:10:14;6.30;68.90
85808;DHT22;76250;48.718;9.000;2024-03-08T00:12:44;6.30;69.00
85808;DHT22;76250;48.718;9.000;2024-03-08T00:15:15;6.30;68.80
85808;DHT22;76250;48.718;9.000;2024-03-08T00:17:46;6.20;68.70
85808;DHT22;76250;48.718;9.000;2024-03-08T00:20:16;6.20;68.90
85808;DHT22;76250;48.718;9.000;2024-03-08T00:22:46;6.20;68.90
85808;DHT22;76250;48.718;9.000;2024-03-08T00:25:15;6.20;68.90
85808;DHT22;76250;48.718;9.000;2024-03-08T00:27:44;6.10;69.00
85808;DHT22;76250;48.718;9.000;2024-03-08T00:30:12;6.20;69.30
85808;DHT22;76250;48.718;9.000;2024-03-08T00:32:42;6.10;69.20
85808;DHT22;76250;48.718;9.000;2024-03-08T00:35:10;6.10;69.10
85808;DHT22;76250;48.718;9.000;2024-03-08T00:37:40;6.10;69.10
85808;DHT22;76250;48.718;9.000;2024-03-08T00:40:10;6.10;69.40
85808;DHT22;76250;48.718;9.000;2024-03-08T00:42:38;6.10;69.40
85808;DHT22;76250;48.718;9.000;2024-03-08T00:45:09;6.00;69.00
85808;DHT22;76250;48.718;9.000;2024-03-08T00:47:38;6.00;69.30
85808;DHT22;76250;48.718;9.000;2024-03-08T00:50:07;6.00;69.30
85808;DHT22;76250;48.718;9.000;2024-03-08T00:52:37;6.00;69.20
85808;DHT22;76250;48.718;9.000;2024-03-08T00:55:05;6.00;69.20
85808;DHT22;76250;48.718;9.000;2024-03-08T00:57:33;6.00;69.20
85808;DHT22;76250;48.718;9.000;2024-03-08T01:00:03;5.90;69.30
85808;DHT22;76250;48.718;9.000;2024-03-08T01:02:38;5.90;69.20
85808;DHT22;76250;48.718;9.000;2024-03-08T01:05:07;5.90;69.40
85808;DHT22;76250;48.718;9.000;2024-03-08T01:07:36;5.90;69.60
85808;DHT22;76250;48.718;9.000;2024-03-08T01:10:04;5.90;69.80
85808;DHT22;76250;48.718;9.000;2024-03-08T01:12:39;5.80;69.90
85808;DHT22;76250;48.718;9.000;2024-03-08T01:15:08;5.80;69.70
85808;DHT22;76250;48.718;9.000;2024-03-08T01:17:37;5.80;69.70
85808;DHT22;76250;48.718;9.000;2024-03-08T01:20:06;5.80;70.00
85808;DHT22;76250;48.718;9.000;2024-03-08T01:22:36;5.80;70.20
85808;DHT22;76250;48.718;9.000;2024-03-08T01:25:04;5.80;70.00
85808;DHT22;76250;48.718;9.000;2024-03-08T01:27:32;5.80;70.50
85808;DHT22;76250;48.718;9.000;2024-03-08T01:30:03;5.80;70.00
85808;DHT22;76250;48.718;9.000;2024-03-08T01:32:31;5.80;70.50
85808;DHT22;76250;48.718;9.000;2024-03-08T01:35:00;5.70;70.10
85808;DHT22;76250;48.718;9.000;2024-03-08T01:37:27;5.70;70.20
85808;DHT22;76250;48.718;9.000;2024-03-08T01:39:57;5.70;70.50
85808;DHT22;76250;48.718;9.000;2024-03-08T01:42:24;5.70;70.60
85808;DHT22;76250;48.718;9.000;2024-03-08T01:44:53;5.70;70.40
85808;DHT22;76250;48.718;9.000;2024-03-08T01:47:24;5.70;70.40
85808;DHT22;76250;48.718;9.000;2024-03-08T01:49:52;5.70;70.70
85808;DHT22;76250;48.718;9.000;2024-03-08T01:52:20;5.60;70.30
85808;DHT22;76250;48.718;9.000;2024-03-08T01:54:50;5.60;70.40
85808;DHT22;76250;48.718;9.000;2024-03-08T01:57:18;5.60;70.60
85808;DHT22;76250;48.718;9.000;2024-03-08T01:59:47;5.60;70.50
85808;DHT22;76250;48.718;9.000;2024-03-08T02:02:18;5.60;70.50
85808;DHT22;76250;48.718;9.000;2024-03-08T02:04:48;5.50;70.50
85808;DHT22;76250;48.718;9.000;2024-03-08T02:07:16;5.60;70.50
85808;DHT22;76250;48.718;9.000;2024-03-08T02:09:44;5.50;70.40
85808;DHT22;76250;48.718;9.000;2024-03-08T02:12:12;5.50;70.90
85808;DHT22;76250;48.718;9.000;2024-03-08T02:14:40;5.50;71.10
85808;DHT22;76250;48.718;9.000;2024-03-08T02:17:08;5.50;70.70
85808;DHT22;76250;48.718;9.000;2024-03-08T02:19:36;5.50;71.00
85808;DHT22;76250;48.718;9.000;2024-03-08T02:22:05;5.50;70.80
85808;DHT22;76250;48.718;9.000;2024-03-08T02:24:33;5.50;70.70
85808;DHT22;76250;48.718;9.000;2024-03-08T02:27:01;5.50;70.70
85808;DHT22;76250;48.718;9.000;2024-03-08T02:29:30;5.40;70.50
85808;DHT22;76250;48.718;9.000;2024-03-08T02:31:59;5.40;70.60
85808;DHT22;76250;48.718;9.000;2024-03-08T02:34:27;5.40;70.60
85808;DHT22;76250;48.718;9.000;2024-03-08T02:36:55;5.40;70.40
85808;DHT22;76250;48.718;9.000;2024-03-08T02:39:24;5.30;70.40
85808;DHT22;76250;48.718;9.000;2024-03-08T02:41:52;5.30;70.50
85808;DHT22;76250;48.718;9.000;2024-03-08T02:44:20;5.30;70.60
85808;DHT22;76250;48.718;9.000;2024-03-08T02:46:49;5.30;70.70
85808;DHT22;76250;48.718;9.000;2024-03-08T02:49:18;5.20;70.70
85808;DHT22;76250;48.718;9.000;2024-03-08T02:51:46;5.20;70.80
85808;DHT22;76250;48.718;9.000;2024-03-08T02:54:13;5.20;71.00
85808;DHT22;76250;48.718;9.000;2024-03-08T02:56:41;5.20;70.80
85808;DHT22;76250;48.718;9.000;2024-03-08T02:59:09;5.20;70.70
85808;DHT22;76250;48.718;9.000;2024-03-08T03:01:37;5.20;71.10
85808;DHT22;76250;48.718;9.000;2024-03-08T03:04:06;5.20;70.80
85808;DHT22;76250;48.718;9.000;2024-03-08T03:06:34;5.10;70.70
85808;DHT22;76250;48.718;9.000;2024-03-08T03:09:02;5.10;70.80
85808;DHT22;76250;48.718;9.000;2024-03-08T03:11:30;5.10;70.80
85808;DHT22;76250;48.718;9.000;2024-03-08T03:13:58;5.10;70.60
85808;DHT22;76250;48.718;9.000;2024-03-08T03:16:26;5.10;70.60
85808;DHT22;76250;48.718;9.000;2024-03-08T03:18:54;5.10;70.80
85808;DHT22;76250;48.718;9.000;2024-03-08T03:21:23;5.00;70.90
85808;DHT22;76250;48.718;9.000;2024-03-08T03:23:51;5.00;71.20
85808;DHT22;76250;48.718;9.000;2024-03-08T03:26:20;5.00;71.00
85808;DHT22;76250;48.718;9.000;2024-03-08T03:28:49;5.00;70.40
85808;DHT22;76250;48.718;9.000;2024-03-08T03:31:17;5.00;70.60
85808;DHT22;76250;48.718;9.000;2024-03-08T03:33:46;4.90;70.80
85808;DHT22;76250;48.718;9.000;2024-03-08T03:36:14;5.00;70.80
85808;DHT22;76250;48.718;9.000;2024-03-08T03:38:44;4.90;71.30
85808;DHT22;76250;48.718;9.000;2024-03-08T03:41:12;4.90;71.20
85808;DHT22;76250;48.718;9.000;2024-03-08T03:43:42;4.90;71.10
85808;DHT22;76250;48.718;9.000;2024-03-08T03:46:10;4.90;70.80
85808;DHT22;76250;48.718;9.000;2024-03-08T03:48:38;4.80;70.90
85808;DHT22;76250;48.718;9.000;2024-03-08T03:51:06;4.90;71.00
85808;DHT22;76250;48.718;9.000;2024-03-08T03:53:35;4.80;70.90
85808;DHT22;76250;48.718;9.000;2024-03-08T03:56:03;4.80;71.50
85808;DHT22;76250;48.718;9.000;2024-03-08T03:58:34;4.80;71.50
85808;DHT22;76250;48.718;9.000;2024-03-08T04:01:04;4.80;71.20
85808;DHT22;76250;48.718;9.000;2024-03-08T04:03:32;4.80;71.30
85808;DHT22;76250;48.718;9.000;2024-03-08T04:06:00;4.80;71.50
85808;DHT22;76250;48.718;9.000;2024-03-08T04:08:29;4.80;71.50
85808;DHT22;76250;48.718;9.000;2024-03-08T04:10:57;4.80;71.20
85808;DHT22;76250;48.718;9.000;2024-03-08T04:13:26;4.70;71.00
85808;DHT22;76250;48.718;9.000;2024-03-08T04:15:54;4.70;71.20
85808;DHT22;76250;48.718;9.000;2024-03-08T04:18:22;4.70;71.40
85808;DHT22;76250;48.718;9.000;2024-03-08T04:20:50;4.70;71.30
85808;DHT22;76250;48.718;9.000;2024-03-08T04:23:18;4.70;71.10
85808;DHT22;76250;48.718;9.000;2024-03-08T04:25:46;4.60;71.10
85808;DHT22;76250;48.718;9.000;2024-03-08T04:28:15;4.60;71.10
85808;DHT22;76250;48.718;9.000;2024-03-08T04:30:45;4.60;71.30
85808;DHT22;76250;48.718;9.000;2024-03-08T04:33:13;4.60;71.60
85808;DHT22;76250;48.718;9.000;2024-03-08T04:35:45;4.60;71.70
85808;DHT22;76250;48.718;9.000;2024-03-08T04:38:13;4.60;71.50
85808;DHT22;76250;48.718;9.000;2024-03-08T04:40:41;4.60;71.30
85808;DHT22;76250;48.718;9.000;2024-03-08T04:43:09;4.60;71.40
85808;DHT22;76250;48.718;9.000;2024-03-08T04:45:38;4.60;71.70
85808;DHT22;76250;48.718;9.000;2024-03-08T04:48:07;4.60;71.60
85808;DHT22;76250;48.718;9.000;2024-03-08T04:50:36;4.50;71.50
85808;DHT22;76250;48.718;9.000;2024-03-08T04:53:05;4.50;71.30
85808;DHT22;76250;48.718;9.000;2024-03-08T04:55:35;4.50;71.40
85808;DHT22;76250;48.718;9.000;2024-03-08T04:58:05;4.50;71.50
85808;DHT22;76250;48.718;9.000;2024-03-08T05:00:35;4.50;71.70
85808;DHT22;76250;48.718;9.000;2024-03-08T05:03:03;4.50;72.10
85808;DHT22;76250;48.718;9.000;2024-03-08T05:05:32;4.50;72.10
85808;DHT22;76250;48.718;9.000;2024-03-08T05:08:01;4.50;72.00
85808;DHT22;76250;48.718;9.000;2024-03-08T05:10:29;4.50;72.40
85808;DHT22;76250;48.718;9.000;2024-03-08T05:12:57;4.50;72.40
85808;DHT22;76250;48.718;9.000;2024-03-08T05:15:25;4.50;72.30
85808;DHT22;76250;48.718;9.000;2024-03-08T05:17:53;4.50;72.50
85808;DHT22;76250;48.718;9.000;2024-03-08T05:20:21;4.50;72.10
85808;DHT22;76250;48.718;9.000;2024-03-08T05:22:49;4.50;71.80
85808;DHT22;76250;48.718;9.000;2024-03-08T05:25:18;4.50;71.80
85808;DHT22;76250;48.718;9.000;2024-03-08T05:27:46;4.40;71.90
85808;DHT22;76250;48.718;9.000;2024-03-08T05:30:15;4.40;71.70
85808;DHT22;76250;48.718;9.000;2024-03-08T05:32:43;4.40;71.60
85808;DHT22;76250;48.718;9.000;2024-03-08T05:35:14;4.40;72.30
85808;DHT22;76250;48.718;9.000;2024-03-08T05:37:44;4.40;71.60
85808;DHT22;76250;48.718;9.000;2024-03-08T05:40:12;4.40;71.60
85808;DHT22;76250;48.718;9.000;2024-03-08T05:42:45;4.30;71.50
85808;DHT22;76250;48.718;9.000;2024-03-08T05:45:14;4.30;71.50
85808;DHT22;76250;48.718;9.000;2024-03-08T05:47:43;4.30;71.70
85808;DHT22;76250;48.718;9.000;2024-03-08T05:50:11;4.30;71.80
85808;DHT22;76250;48.718;9.000;2024-03-08T05:52:39;4.30;71.60
85808;DHT22;76250;48.718;9.000;2024-03-08T05:55:07;4.30;71.50
85808;DHT22;76250;48.718;9.000;2024-03-08T05:57:37;4.30;71.70
85808;DHT22;76250;48.718;9.000;2024-03-08T06:00:09;4.30;71.70
85808;DHT22;76250;48.718;9.000;2024-03-08T06:02:39;4.30;71.60
85808;DHT22;76250;48.718;9.000;2024-03-08T06:05:10;4.30;71.80
85808;DHT22;76250;48.718;9.000;2024-03-08T06:07:38;4.30;71.70
85808;DHT22;76250;48.718;9.000;2024-03-08T06:10:10;4.30;71.60
85808;DHT22;76250;48.718;9.000;2024-03-08T06:12:40;4.30;71.90
85808;DHT22;76250;48.718;9.000;2024-03-08T06:15:09;4.30;71.60
85808;DHT22;76250;48.718;9.000;2024-03-08T06:17:38;4.20;71.50
85808;DHT22;76250;48.718;9.000;2024-03-08T06:20:09;4.30;71.50
85808;DHT22;76250;48.718;9.000;2024-03-08T06:22:41;4.20;71.50
85808;DHT22;76250;48.718;9.000;2024-03-08T06:25:09;4.30;71.60
85808;DHT22;76250;48.718;9.000;2024-03-08T06:27:42;4.30;71.60
85808;DHT22;76250;48.718;9.000;2024-03-08T06:30:16;4.30;71.50
85808;DHT22;76250;48.718;9.000;2024-03-08T06:32:44;4.30;71.60
85808;DHT22;76250;48.718;9.000;2024-03-08T06:35:12;4.30;71.70
85808;DHT22;76250;48.718;9.000;2024-03-08T06:37:44;4.30;71.90
85808;DHT22;76250;48.718;9.000;2024-03-08T06:40:12;4.40;72.20
85808;DHT22;76250;48.718;9.000;2024-03-08T06:42:42;4.40;72.30
85808;DHT22;76250;48.718;9.000;2024-03-08T06:45:10;4.50;72.80
85808;DHT22;76250;48.718;9.000;2024-03-08T06:47:40;4.50;72.60
85808;DHT22;76250;48.718;9.000;2024-03-08T06:50:09;4.60;72.80
85808;DHT22;76250;48.718;9.000;2024-03-08T06:52:39;4.70;72.90
85808;DHT22;76250;48.718;9.000;2024-03-08T06:55:08;4.80;72.80
85808;DHT22;76250;48.718;9.000;2024-03-08T06:57:40;4.80;72.60
85808;DHT22;76250;48.718;9.000;2024-03-08T07:00:09;4.90;72.80
85808;DHT22;76250;48.718;9.000;2024-03-08T07:02:42;5.00;72.60
85808;DHT22;76250;48.718;9.000;2024-03-08T07:05:13;5.10;72.60
85808;DHT22;76250;48.718;9.000;2024-03-08T07:07:41;5.10;72.70
85808;DHT22;76250;48.718;9.000;2024-03-08T07:10:09;5.20;72.80
85808;DHT22;76250;48.718;9.000;2024-03-08T07:12:38;5.30;72.10
85808;DHT22;76250;48.718;9.000;2024-03-08T07:15:06;5.30;72.00
85808;DHT22;76250;48.718;9.000;2024-03-08T07:17:35;5.40;72.30
85808;DHT22;76250;48.718;9.000;2024-03-08T07:20:03;5.40;72.30
85808;DHT22;76250;48.718;9.000;2024-03-08T07:22:36;5.50;71.90
85808;DHT22;76250;48.718;9.000;2024-03-08T07:25:05;5.50;72.20
85808;DHT22;76250;48.718;9.000;2024-03-08T07:27:54;5.60;71.70
85808;DHT22;76250;48.718;9.000;2024-03-08T07:30:24;5.60;71.90
85808;DHT22;76250;48.718;9.000;2024-03-08T07:33:12;5.70;71.60
85808;DHT22;76250;48.718;9.000;2024-03-08T07:35:41;5.80;71.80
85808;DHT22;76250;48.718;9.000;2024-03-08T07:38:13;5.80;71.70
85808;DHT22;76250;48.718;9.000;2024-03-08T07:40:41;5.80;71.10
85808;DHT22;76250;48.718;9.000;2024-03-08T07:43:13;5.90;70.70
85808;DHT22;76250;48.718;9.000;2024-03-08T07:45:41;5.90;71.00
85808;DHT22;76250;48.718;9.000;2024-03-08T07:48:09;6.00;71.00
85808;DHT22;76250;48.718;9.000;2024-03-08T07:50:38;6.00;71.00
85808;DHT22;76250;48.718;9.000;2024-03-08T07:53:07;6.10;71.20
85808;DHT22;76250;48.718;9.000;2024-03-08T07:55:36;6.10;71.30
85808;DHT22;76250;48.718;9.000;2024-03-08T07:58:05;6.20;71.10
85808;DHT22;76250;48.718;9.000;2024-03-08T08:00:34;6.20;70.50
85808;DHT22;76250;48.718;9.000;2024-03-08T08:03:04;6.20;70.50
85808;DHT22;76250;48.718;9.000;2024-03-08T08:05:32;6.30;70.60
85808;DHT22;76250;48.718;9.000;2024-03-08T08:08:03;6.30;69.90
85808;DHT22;76250;48.718;9.000;2024-03-08T08:10:34;6.30;70.30
85808;DHT22;76250;48.718;9.000;2024-03-08T08:13:02;6.30;70.60
85808;DHT22;76250;48.718;9.000;2024-03-08T08:15:32;6.40;70.60
85808;DHT22;76250;48.718;9.000;2024-03-08T08:18:03;6.50;70.70
85808;DHT22;76250;48.718;9.000;2024-03-08T08:20:34;6.50;70.80
85808;DHT22;76250;48.718;9.000;2024-03-08T08:23:02;6.60;70.20
85808;DHT22;76250;48.718;9.000;2024-03-08T08:25:30;6.60;69.30
85808;DHT22;76250;48.718;9.000;2024-03-08T08:27:58;6.60;70.00
85808;DHT22;76250;48.718;9.000;2024-03-08T08:30:26;6.70;69.40
85808;DHT22;76250;48.718;9.000;2024-03-08T08:32:55;6.70;70.10
85808;DHT22;76250;48.718;9.000;2024-03-08T08:35:26;6.70;69.70
85808;DHT22;76250;48.718;9.000;2024-03-08T08:37:57;6.80;69.60
85808;DHT22;76250;48.718;9.000;2024-03-08T08:40:26;6.80;68.70
85808;DHT22;76250;48.718;9.000;2024-03-08T08:42:57;6.80;68.40
85808;DHT22;76250;48.718;9.000;2024-03-08T08:45:26;6.80;68.80
85808;DHT22;76250;48.718;9.000;2024-03-08T08:47:54;6.80;69.20
85808;DHT22;76250;48.718;9.000;2024-03-08T08:50:23;6.80;68.50
85808;DHT22;76250;48.718;9.000;2024-03-08T08:52:52;6.80;68.80
85808;DHT22;76250;48.718;9.000;2024-03-08T08:55:21;6.90;69.20
85808;DHT22;76250;48.718;9.000;2024-03-08T08:57:54;6.90;68.80
85808;DHT22;76250;48.718;9.000;2024-03-08T09:00:22;7.00;68.80
85808;DHT22;76250;48.718;9.000;2024-03-08T09:02:55;7.00;68.70
85808;DHT22;76250;48.718;9.000;2024-03-08T09:05:26;7.00;68.30
85808;DHT22;76250;48.718;9.000;2024-03-08T09:07:54;7.00;67.30
85808;DHT22;76250;48.718;9.000;2024-03-08T09:10:23;7.00;68.00
85808;DHT22;76250;48.718;9.000;2024-03-08T09:12:57;7.00;68.20
85808;DHT22;76250;48.718;9.000;2024-03-08T09:15:27;7.10;68.30
85808;DHT22;76250;48.718;9.000;2024-03-08T09:17:56;7.10;68.50
85808;DHT22;76250;48.718;9.000;2024-03-08T09:20:25;7.10;68.20
85808;DHT22;76250;48.718;9.000;2024-03-08T09:22:53;7.20;68.50
85808;DHT22;76250;48.718;9.000;2024-03-08T09:25:21;7.30;68.40
85808;DHT22;76250;48.718;9.000;2024-03-08T09:27:49;7.30;67.70
85808;DHT22;76250;48.718;9.000;2024-03-08T09:30:17;7.30;68.00
85808;DHT22;76250;48.718;9.000;2024-03-08T09:32:45;7.30;68.10
85808;DHT22;76250;48.718;9.000;2024-03-08T09:35:14;7.30;67.40
85808;DHT22;76250;48.718;9.000;2024-03-08T09:37:42;7.40;67.50
85808;DHT22;76250;48.718;9.000;2024-03-08T09:40:11;7.40;67.60
85808;DHT22;76250;48.718;9.000;2024-03-08T09:42:48;7.40;67.10
85808;DHT22;76250;48.718;9.000;2024-03-08T09:45:20;7.40;67.50
85808;DHT22;76250;48.718;9.000;2024-03-08T09:47:54;7.50;66.90
85808;DHT22;76250;48.718;9.000;2024-03-08T09:50:29;7.50;67.70
85808;DHT22;76250;48.718;9.000;2024-03-08T09:52:58;7.50;67.30
85808;DHT22;76250;48.718;9.000;2024-03-08T09:55:27;7.50;67.00
85808;DHT22;76250;48.718;9.000;2024-03-08T09:58:02;7.60;67.00
85808;DHT22;76250;48.718;9.000;2024-03-08T10:00:49;7.60;67.20
85808;DHT22;76250;48.718;9.000;2024-03-08T10:03:20;7.60;66.20
85808;DHT22;76250;48.718;9.000;2024-03-08T10:05:48;7.70;66.60
85808;DHT22;76250;48.718;9.000;2024-03-08T10:08:17;7.70;65.90
85808;DHT22;76250;48.718;9.000;2024-03-08T10:10:47;7.70;66.60
85808;DHT22;76250;48.718;9.000;2024-03-08T10:13:17;7.80;66.80
85808;DHT22;76250;48.718;9.000;2024-03-08T10:15:48;7.80;66.10
85808;DHT22;76250;48.718;9.000;2024-03-08T10:18:16;7.80;65.90
85808;DHT22;76250;48.718;9.000;2024-03-08T10:20:45;7.90;66.20
85808;DHT22;76250;48.718;9.000;2024-03-08T10:23:13;8.00;65.70
85808;DHT22;76250;48.718;9.000;2024-03-08T10:25:41;8.00;66.40
85808;DHT22;76250;48.718;9.000;2024-03-08T10:28:10;8.00;65.80
85808;DHT22;76250;48.718;9.000;2024-03-08T10:30:38;8.10;66.30
85808;DHT22;76250;48.718;9.000;2024-03-08T10:33:06;8.10;66.30
85808;DHT22;76250;48.718;9.000;2024-03-08T10:35:34;8.20;66.30
85808;DHT22;76250;48.718;9.000;2024-03-08T10:38:05;8.30;65.50
85808;DHT22;76250;48.718;9.000;2024-03-08T10:40:39;8.30;64.90
85808;DHT22;76250;48.718;9.000;2024-03-08T10:43:17;8.30;64.30
85808;DHT22;76250;48.718;9.000;2024-03-08T10:49:15;8.30;65.20
85808;DHT22;76250;48.718;9.000;2024-03-08T10:51:45;8.30;65.00
85808;DHT22;76250;48.718;9.000;2024-03-08T10:54:15;8.30;65.00
85808;DHT22;76250;48.718;9.000;2024-03-08T10:56:43;8.40;65.00
85808;DHT22;76250;48.718;9.000;2024-03-08T10:59:12;8.50;65.00
85808;DHT22;76250;48.718;9.000;2024-03-08T11:01:41;8.50;65.40
85808;DHT22;76250;48.718;9.000;2024-03-08T11:04:09;8.60;65.00
85808;DHT22;76250;48.718;9.000;2024-03-08T11:09:11;8.70;64.80
85808;DHT22;76250;48.718;9.000;2024-03-08T11:15:02;8.90;64.20
85808;DHT22;76250;48.718;9.000;2024-03-08T11:20:11;9.10;64.80
85808;DHT22;76250;48.718;9.000;2024-03-08T11:22:49;9.20;64.60
85808;DHT22;76250;48.718;9.000;2024-03-08T11:25:39;9.30;63.80
85808;DHT22;76250;48.718;9.000;2024-03-08T11:28:23;9.40;64.30
85808;DHT22;76250;48.718;9.000;2024-03-08T11:33:30;9.50;63.40
85808;DHT22;76250;48.718;9.000;2024-03-08T11:36:08;9.60;63.90
85808;DHT22;76250;48.718;9.000;2024-03-08T11:38:46;9.70;63.70
85808;DHT22;76250;48.718;9.000;2024-03-08T11:41:17;9.80;63.70
85808;DHT22;76250;48.718;9.000;2024-03-08T11:44:01;9.90;62.70
85808;DHT22;76250;48.718;9.000;2024-03-08T11:46:33;10.00;62.30
85808;DHT22;76250;48.718;9.000;2024-03-08T11:49:03;10.00;62.00
85808;DHT22;76250;48.718;9.000;2024-03-08T11:51:33;10.00;61.60
85808;DHT22;76250;48.718;9.000;2024-03-08T11:54:02;10.00;61.70
85808;DHT22;76250;48.718;9.000;2024-03-08T11:56:30;10.00;60.80
85808;DHT22;76250;48.718;9.000;2024-03-08T11:58:59;10.00;61.40
85808;DHT22;76250;48.718;9.000;2024-03-08T12:01:29;9.90;60.40
85808;DHT22;76250;48.718;9.000;2024-03-08T12:03:59;9.90;60.60
85808;DHT22;76250;48.718;9.000;2024-03-08T12:06:37;9.90;61.00
85808;DHT22;76250;48.718;9.000;2024-03-08T12:09:11;9.90;60.40
85808;DHT22;76250;48.718;9.000;2024-03-08T12:11:39;9.90;61.00
85808;DHT22;76250;48.718;9.000;2024-03-08T12:14:07;9.90;60.90
85808;DHT22;76250;48.718;9.000;2024-03-08T12:16:37;9.90;60.50
85808;DHT22;76250;48.718;9.000;2024-03-08T12:19:05;9.90;61.10
85808;DHT22;76250;48.718;9.000;2024-03-08T12:21:33;9.90;61.50
85808;DHT22;76250;48.718;9.000;2024-03-08T12:24:05;9.90;61.40
85808;DHT22;76250;48.718;9.000;2024-03-08T12:26:38;9.90;61.60
85808;DHT22;76250;48.718;9.000;2024-03-08T12:29:20;10.00;60.90
85808;DHT22;76250;48.718;9.000;2024-03-08T12:31:54;10.10;61.30
85808;DHT22;76250;48.718;9.000;2024-03-08T12:34:23;10.10;61.90
85808;DHT22;76250;48.718;9.000;2024-03-08T12:36:52;10.10;62.00
85808;DHT22;76250;48.718;9.000;2024-03-08T12:39:22;10.30;62.00
85808;DHT22;76250;48.718;9.000;2024-03-08T12:41:55;10.30;61.50
85808;DHT22;76250;48.718;9.000;2024-03-08T12:44:27;10.30;61.20
85808;DHT22;76250;48.718;9.000;2024-03-08T12:46:56;10.40;61.90
85808;DHT22;76250;48.718;9.000;2024-03-08T12:49:27;10.50;61.60
85808;DHT22;76250;48.718;9.000;2024-03-08T12:51:55;10.50;61.10
85808;DHT22;76250;48.718;9.000;2024-03-08T12:54:23;10.50;61.90
85808;DHT22;76250;48.718;9.000;2024-03-08T12:56:52;10.50;61.80
85808;DHT22;76250;48.718;9.000;2024-03-08T12:59:22;10.50;61.20
85808;DHT22;76250;48.718;9.000;2024-03-08T13:01:51;10.60;61.60
85808;DHT22;76250;48.718;9.000;2024-03-08T13:04:21;10.60;60.40
85808;DHT22;76250;48.718;9.000;2024-03-08T13:06:50;10.70;60.60
85808;DHT22;76250;48.718;9.000;2024-03-08T13:09:22;10.70;60.50
85808;DHT22;76250;48.718;9.000;2024-03-08T13:11:50;10.80;61.10
85808;DHT22;76250;48.718;9.000;2024-03-08T13:14:18;10.80;60.70
85808;DHT22;76250;48.718;9.000;2024-03-08T13:16:46;10.90;60.40
85808;DHT22;76250;48.718;9.000;2024-03-08T13:19:16;11.00;61.00
85808;DHT22;76250;48.718;9.000;2024-03-08T13:21:44;11.10;61.10
85808;DHT22;76250;48.718;9.000;2024-03-08T13:24:17;11.10;60.90
85808;DHT22;76250;48.718;9.000;2024-03-08T13:26:47;11.20;60.50
85808;DHT22;76250;48.718;9.000;2024-03-08T13:29:15;11.20;60.00
85808;DHT22;76250;48.718;9.000;2024-03-08T13:31:43;11.30;60.60
85808;DHT22;76250;48.718;9.000;2024-03-08T13:34:11;11.30;60.60
85808;DHT22;76250;48.718;9.000;2024-03-08T13:36:39;11.40;59.70
85808;DHT22;76250;48.718;9.000;2024-03-08T13:39:12;11.40;60.20
85808;DHT22;76250;48.718;9.000;2024-03-08T13:41:43;11.40;60.50
85808;DHT22;76250;48.718;9.000;2024-03-08T13:44:12;11.50;59.20
85808;DHT22;76250;48.718;9.000;2024-03-08T13:46:40;11.50;60.30
85808;DHT22;76250;48.718;9.000;2024-03-08T13:49:09;11.50;60.30
85808;DHT22;76250;48.718;9.000;2024-03-08T13:51:38;11.60;59.30
85808;DHT22;76250;48.718;9.000;2024-03-08T13:54:06;11.60;60.00
85808;DHT22;76250;48.718;9.000;2024-03-08T13:56:34;11.70;59.30
85808;DHT22;76250;48.718;9.000;2024-03-08T13:59:02;11.70;59.80
85808;DHT22;76250;48.718;9.000;2024-03-08T14:01:30;11.80;59.90
85808;DHT22;76250;48.718;9.000;2024-03-08T14:03:59;11.80;58.80
85808;DHT22;76250;48.718;9.000;2024-03-08T14:06:27;11.80;59.20
85808;DHT22;76250;48.718;9.000;2024-03-08T14:08:55;11.80;59.60
85808;DHT22;76250;48.718;9.000;2024-03-08T14:11:24;11.80;58.40
85808;DHT22;76250;48.718;9.000;2024-03-08T14:13:53;11.90;58.70
85808;DHT22;76250;48.718;9.000;2024-03-08T14:16:21;11.90;58.50
85808;DHT22;76250;48.718;9.000;2024-03-08T14:18:50;11.80;58.00
85808;DHT22;76250;48.718;9.000;2024-03-08T14:21:17;11.80;58.70
85808;DHT22;76250;48.718;9.000;2024-03-08T14:23:45;11.80;58.60
85808;DHT22;76250;48.718;9.000;2024-03-08T14:26:16;11.80;57.80
85808;DHT22;76250;48.718;9.000;2024-03-08T14:28:44;11.80;57.80
85808;DHT22;76250;48.718;9.000;2024-03-08T14:31:13;11.80;58.40
85808;DHT22;76250;48.718;9.000;2024-03-08T14:33:45;11.80;58.90
85808;DHT22;76250;48.718;9.000;2024-03-08T14:36:17;11.90;59.10
85808;DHT22;76250;48.718;9.000;2024-03-08T14:38:45;11.80;59.30
85808;DHT22;76250;48.718;9.000;2024-03-08T14:41:14;11.90;58.50
85808;DHT22;76250;48.718;9.000;2024-03-08T14:43:43;11.90;58.90
85808;DHT22;76250;48.718;9.000;2024-03-08T14:46:15;11.90;58.10
85808;DHT22;76250;48.718;9.000;2024-03-08T14:48:49;11.90;58.00
85808;DHT22;76250;48.718;9.000;2024-03-08T14:51:19;11.90;58.40
85808;DHT22;76250;48.718;9.000;2024-03-08T14:53:49;12.00;59.10
85808;DHT22;76250;48.718;9.000;2024-03-08T14:56:18;12.00;57.70
85808;DHT22;76250;48.718;9.000;2024-03-08T14:58:46;11.90;58.00
85808;DHT22;76250;48.718;9.000;2024-03-08T15:01:17;12.00;58.50
85808;DHT22;76250;48.718;9.000;2024-03-08T15:03:52;12.00;58.60
85808;DHT22;76250;48.718;9.000;2024-03-08T15:06:20;11.90;58.10
85808;DHT22;76250;48.718;9.000;2024-03-08T15:08:48;12.00;57.40
85808;DHT22;76250;48.718;9.000;2024-03-08T15:11:16;12.00;58.40
85808;DHT22;76250;48.718;9.000;2024-03-08T15:13:53;12.00;57.80
85808;DHT22;76250;48.718;9.000;2024-03-08T15:16:21;12.00;58.30
85808;DHT22;76250;48.718;9.000;2024-03-08T15:18:51;12.00;57.70
85808;DHT22;76250;48.718;9.000;2024-03-08T15:21:21;12.00;57.40
85808;DHT22;76250;48.718;9.000;2024-03-08T15:23:53;12.00;57.10
85808;DHT22;76250;48.718;9.000;2024-03-08T15:26:22;11.90;56.10
85808;DHT22;76250;48.718;9.000;2024-03-08T15:28:50;12.00;58.00
85808;DHT22;76250;48.718;9.000;2024-03-08T15:31:20;12.00;57.90
85808;DHT22;76250;48.718;9.000;2024-03-08T15:33:49;12.00;56.90
85808;DHT22;76250;48.718;9.000;2024-03-08T15:36:19;12.00;57.80
85808;DHT22;76250;48.718;9.000;2024-03-08T15:38:48;11.90;56.80
85808;DHT22;76250;48.718;9.000;2024-03-08T15:41:20;11.90;56.60
85808;DHT22;76250;48.718;9.000;2024-03-08T15:43:49;11.90;57.40
85808;DHT22;76250;48.718;9.000;2024-03-08T15:46:18;11.90;57.60
85808;DHT22;76250;48.718;9.000;2024-03-08T15:48:50;12.00;56.90
85808;DHT22;76250;48.718;9.000;2024-03-08T15:51:21;11.90;56.90
85808;DHT22;76250;48.718;9.000;2024-03-08T15:53:49;11.90;56.80
85808;DHT22;76250;48.718;9.000;2024-03-08T15:56:24;11.90;57.50
85808;DHT22;76250;48.718;9.000;2024-03-08T15:58:54;11.90;56.90
85808;DHT22;76250;48.718;9.000;2024-03-08T16:01:23;11.90;56.50
85808;DHT22;76250;48.718;9.000;2024-03-08T16:03:52;11.90;56.80
85808;DHT22;76250;48.718;9.000;2024-03-08T16:06:22;11.90;56.90
85808;DHT22;76250;48.718;9.000;2024-03-08T16:08:52;11.80;56.90
85808;DHT22;76250;48.718;9.000;2024-03-08T16:11:20;11.80;57.10